SPJR

Details ICAO SPJR (CJA)
Name GEN FAP ARMANDO REVOREDO IGLESIAS
Region Peru
Timezone America/Lima (UTC-5.0)
Plans Departing 5
Arriving 10
Stats Elevation 8,781 ft / 2,676 m (AMSL)
Location -7.139184° -78.489400°
Runways 1
Magnetic Variation 2.039° W
Sunrise 2017-12-18 10:55:56 UTC / 2017-12-18 05:55:56 Local
Sunset 2017-12-18 23:28:07 UTC / 2017-12-18 18:28:07 Local
Advertisement - Login to hide

Runways

ID Width Length Bearing (true) Bearing (mag) Surface Threshold Offset Overrun Length
16 148 ft / 45 m 8,206 ft / 2,501 m 157.82° 159.86° Asphalt 0 ft / 0 m 190 ft / 58 m
34 148 ft / 45 m 8,206 ft / 2,501 m 337.82° 339.86° Asphalt 0 ft / 0 m 190 ft / 58 m

Map

Weather


0- 5 10 15 20 25 30 35+ Temperature / ° C

Clouds and Precipitation
Forecast for 2017-12-19 00:00 UTC. Updated 2 hours ago

Ground ~20,000 ft ~40,000 ft Winds

METAR

SPJR 182100Z 06003KT 9999 SCT023 BKN040 17/12 Q1023 RMK PP000

TAF

SPJR 181658Z 1818/1918 12005KT 9999 FEW024 SCT043 TX24/1819Z TN10/1910Z TEMPO 1820/1823 06011KT FEW024 SCT045 SCT080 BECMG 1901/1903 10005KT SCT045 SCT080 TEMPO 1902/1905 8000 RA SCT045 BKN080

Frequencies

Tower 118.10 MHz CAJAMARCA TWR
Warning: Do not use this data for real-world aviation or navigation. No guarantee of current accuracy is given.